createdAt,value
2023-03-20T00:01:18.185Z,9.00
2023-03-20T00:03:46.102Z,9.00
2023-03-20T00:06:21.129Z,9.10
2023-03-20T00:08:50.045Z,9.00
2023-03-20T00:11:31.507Z,8.90
2023-03-20T00:14:02.513Z,8.90
2023-03-20T00:16:37.343Z,9.00
2023-03-20T00:19:05.591Z,9.00
2023-03-20T00:21:33.842Z,9.10
2023-03-20T00:24:01.826Z,9.20
2023-03-20T00:26:36.464Z,9.20
2023-03-20T00:29:05.407Z,9.00
2023-03-20T00:31:34.604Z,9.00
2023-03-20T00:34:03.551Z,9.00
2023-03-20T00:36:31.443Z,9.00
2023-03-20T00:39:00.561Z,9.00
2023-03-20T00:41:34.842Z,9.00
2023-03-20T00:44:12.095Z,8.90
2023-03-20T00:46:40.417Z,9.00
2023-03-20T00:49:10.874Z,9.00
2023-03-20T00:51:40.799Z,9.10
2023-03-20T00:54:20.536Z,9.10
2023-03-20T00:56:51.495Z,9.20
2023-03-20T00:59:23.815Z,9.20
2023-03-20T01:01:52.208Z,9.30
2023-03-20T01:04:21.045Z,9.30
2023-03-20T01:06:49.247Z,9.30
2023-03-20T01:09:17.069Z,9.30
2023-03-20T01:11:45.897Z,9.40
2023-03-20T01:14:14.702Z,9.30
2023-03-20T01:16:43.267Z,9.30
2023-03-20T01:19:13.386Z,9.30
2023-03-20T01:21:41.978Z,9.30
2023-03-20T01:24:10.263Z,9.20
2023-03-20T01:26:39.284Z,9.10
2023-03-20T01:29:20.694Z,9.10
2023-03-20T01:31:49.663Z,9.10
2023-03-20T01:34:19.024Z,9.10
2023-03-20T01:36:49.540Z,9.10
2023-03-20T01:39:19.122Z,9.10
2023-03-20T01:41:48.207Z,9.10
2023-03-20T01:44:19.409Z,9.10
2023-03-20T01:46:48.011Z,9.00
2023-03-20T01:49:20.062Z,9.10
2023-03-20T01:51:53.407Z,9.10
2023-03-20T01:54:28.439Z,9.10
2023-03-20T01:57:15.578Z,9.10
2023-03-20T01:59:46.698Z,9.10
2023-03-20T02:02:15.975Z,9.10
2023-03-20T02:04:47.469Z,9.10
2023-03-20T02:07:19.436Z,9.10
2023-03-20T02:09:57.157Z,9.20
2023-03-20T02:12:37.404Z,9.20
2023-03-20T02:18:04.842Z,9.20
2023-03-20T02:20:39.934Z,9.30
2023-03-20T02:23:40.391Z,9.30
2023-03-20T02:26:08.526Z,9.30
2023-03-20T02:28:45.178Z,9.30
2023-03-20T02:31:13.024Z,9.20
2023-03-20T02:33:45.764Z,9.20
2023-03-20T02:36:23.324Z,9.20
2023-03-20T02:38:57.274Z,9.20
2023-03-20T02:41:25.159Z,9.20
2023-03-20T02:44:05.396Z,9.20
2023-03-20T02:46:38.466Z,9.00
2023-03-20T02:49:12.093Z,9.10
2023-03-20T02:51:43.130Z,9.10
2023-03-20T02:54:17.279Z,9.10
2023-03-20T02:56:58.338Z,9.20
2023-03-20T02:59:26.263Z,9.20
2023-03-20T03:01:56.686Z,9.20
2023-03-20T03:04:27.318Z,9.20
2023-03-20T03:06:57.002Z,9.20
2023-03-20T03:09:28.117Z,9.20
2023-03-20T03:12:00.579Z,9.20
2023-03-20T03:14:36.668Z,9.20
2023-03-20T03:17:07.661Z,9.10
2023-03-20T03:19:36.690Z,9.00
2023-03-20T03:22:05.143Z,9.00
2023-03-20T03:24:40.836Z,8.90
2023-03-20T03:27:16.694Z,8.90
2023-03-20T03:29:45.618Z,8.90
2023-03-20T03:32:30.130Z,8.90
2023-03-20T03:34:58.618Z,8.90
2023-03-20T03:37:41.248Z,8.80
2023-03-20T03:40:14.867Z,8.80
2023-03-20T03:42:51.993Z,8.80
2023-03-20T03:45:46.091Z,8.80
2023-03-20T03:48:37.163Z,8.80
2023-03-20T03:51:08.428Z,8.80
2023-03-20T03:53:43.872Z,8.80
2023-03-20T03:56:13.300Z,8.70
2023-03-20T03:58:44.584Z,8.70
2023-03-20T04:01:13.966Z,8.60
2023-03-20T04:03:43.881Z,8.60
2023-03-20T04:06:13.938Z,8.60
2023-03-20T04:08:42.783Z,8.50
2023-03-20T04:11:18.937Z,8.40
2023-03-20T04:13:49.772Z,8.40
2023-03-20T04:16:18.274Z,8.40
2023-03-20T04:18:47.416Z,8.40
2023-03-20T04:21:18.987Z,8.30
2023-03-20T04:23:50.126Z,8.20
2023-03-20T04:26:20.203Z,8.30
2023-03-20T04:28:48.054Z,8.30
2023-03-20T04:31:38.992Z,8.40
2023-03-20T04:34:19.123Z,8.50
2023-03-20T04:37:06.458Z,8.50
2023-03-20T04:39:47.530Z,8.40
2023-03-20T04:42:15.630Z,8.40
2023-03-20T04:44:43.425Z,8.40
2023-03-20T04:47:11.470Z,8.40
2023-03-20T04:49:43.279Z,8.40
2023-03-20T04:52:11.613Z,8.40
2023-03-20T04:54:42.544Z,8.40
2023-03-20T04:57:10.506Z,8.50
2023-03-20T04:59:39.485Z,8.60
2023-03-20T05:02:10.654Z,8.50
2023-03-20T05:04:38.545Z,8.40
2023-03-20T05:07:06.385Z,8.30
2023-03-20T05:09:55.286Z,8.20
2023-03-20T05:12:24.819Z,8.20
2023-03-20T05:15:05.613Z,8.20
2023-03-20T05:17:51.996Z,8.30
2023-03-20T05:20:38.676Z,8.30
2023-03-20T05:23:13.531Z,8.40
2023-03-20T05:25:49.578Z,8.40
2023-03-20T05:28:35.679Z,8.40
2023-03-20T05:31:15.239Z,8.50
2023-03-20T05:34:15.616Z,8.40
2023-03-20T05:37:06.355Z,8.50
2023-03-20T05:39:50.232Z,8.60
2023-03-20T05:42:28.564Z,8.60
2023-03-20T05:45:22.491Z,8.60
2023-03-20T05:48:08.371Z,8.60
2023-03-20T05:51:05.459Z,8.60
2023-03-20T05:53:56.374Z,8.60
2023-03-20T05:56:42.554Z,8.60
2023-03-20T05:59:17.839Z,8.70
2023-03-20T06:01:55.883Z,8.70
2023-03-20T06:04:30.745Z,8.70
2023-03-20T06:07:18.860Z,8.80
2023-03-20T06:09:56.839Z,8.80
2023-03-20T06:12:24.687Z,8.80
2023-03-20T06:14:52.646Z,8.80
2023-03-20T06:17:21.645Z,8.80
2023-03-20T06:19:54.073Z,8.80
2023-03-20T06:22:23.375Z,8.90
2023-03-20T06:24:51.985Z,8.90
2023-03-20T06:27:20.580Z,8.90
2023-03-20T06:29:50.150Z,8.90
2023-03-20T06:32:23.898Z,8.90
2023-03-20T06:35:03.075Z,8.90
2023-03-20T06:37:31.050Z,8.90
2023-03-20T06:40:07.756Z,8.90
2023-03-20T06:42:37.497Z,9.00
2023-03-20T06:45:07.724Z,8.90
2023-03-20T06:47:59.672Z,9.00
2023-03-20T06:50:31.529Z,9.00
2023-03-20T06:53:00.203Z,9.00
2023-03-20T06:55:57.011Z,9.10
2023-03-20T06:58:24.915Z,9.10
2023-03-20T07:00:53.320Z,9.10
2023-03-20T07:03:22.258Z,9.10
2023-03-20T07:05:52.028Z,9.10
2023-03-20T07:08:25.006Z,9.20
2023-03-20T07:10:52.890Z,9.20
2023-03-20T07:13:21.745Z,9.20
2023-03-20T07:16:03.384Z,9.20
2023-03-20T07:18:35.811Z,9.30
2023-03-20T07:21:05.032Z,9.30
2023-03-20T07:23:33.448Z,9.30
2023-03-20T07:26:01.419Z,9.30
2023-03-20T07:28:30.005Z,9.40
2023-03-20T07:31:19.513Z,9.40
2023-03-20T07:33:48.808Z,9.50
2023-03-20T07:36:16.968Z,9.50
2023-03-20T07:38:45.485Z,9.60
2023-03-20T07:41:14.111Z,9.60
2023-03-20T07:43:47.314Z,9.70
2023-03-20T07:46:50.831Z,9.70
2023-03-20T07:49:22.040Z,9.80
2023-03-20T07:51:50.558Z,9.80
2023-03-20T07:54:18.518Z,9.90
2023-03-20T07:56:46.352Z,9.80
2023-03-20T07:59:15.057Z,9.90
2023-03-20T08:01:43.338Z,10.00
2023-03-20T08:04:11.214Z,10.10
2023-03-20T08:06:40.657Z,10.20
2023-03-20T08:09:11.113Z,10.20
2023-03-20T08:11:39.108Z,10.30
2023-03-20T08:14:09.910Z,10.30
2023-03-20T08:16:41.658Z,10.40
2023-03-20T08:19:09.623Z,10.50
2023-03-20T08:21:37.488Z,10.50
2023-03-20T08:24:05.391Z,10.50
2023-03-20T08:26:33.251Z,10.50
2023-03-20T08:29:01.311Z,10.40
2023-03-20T08:31:29.148Z,10.50
2023-03-20T08:33:58.104Z,10.60
2023-03-20T08:36:26.153Z,10.70
2023-03-20T08:38:54.283Z,10.80
2023-03-20T08:41:22.116Z,10.80
2023-03-20T08:43:49.931Z,10.80
2023-03-20T08:46:18.480Z,10.60
2023-03-20T08:48:46.482Z,10.60
2023-03-20T08:51:14.410Z,10.70
2023-03-20T08:53:42.415Z,10.80
2023-03-20T08:56:10.619Z,10.90
2023-03-20T08:58:38.554Z,11.00
2023-03-20T09:01:07.002Z,11.10
2023-03-20T09:03:35.084Z,11.10
2023-03-20T09:06:03.249Z,11.10
2023-03-20T09:08:31.105Z,11.10
2023-03-20T09:10:59.169Z,11.20
2023-03-20T09:13:28.121Z,11.10
2023-03-20T09:15:56.480Z,11.10
2023-03-20T09:18:25.975Z,11.00
2023-03-20T09:20:53.905Z,11.10
2023-03-20T09:23:21.723Z,11.10
2023-03-20T09:25:49.915Z,11.00
2023-03-20T09:28:17.834Z,11.00
2023-03-20T09:30:46.588Z,11.10
2023-03-20T09:33:15.971Z,11.20
2023-03-20T09:35:44.070Z,11.30
2023-03-20T09:38:13.293Z,11.30
2023-03-20T09:40:59.998Z,11.40
2023-03-20T09:43:39.610Z,11.40
2023-03-20T09:46:13.789Z,11.40
2023-03-20T09:48:44.841Z,11.50
2023-03-20T09:51:28.475Z,11.50
2023-03-20T09:54:01.154Z,11.50
2023-03-20T09:56:30.645Z,11.50
2023-03-20T09:59:00.553Z,11.50
2023-03-20T10:01:31.734Z,11.50
2023-03-20T10:04:10.221Z,11.40
2023-03-20T10:06:38.272Z,11.50
2023-03-20T10:09:15.914Z,11.50
2023-03-20T10:12:05.052Z,11.50
2023-03-20T10:14:37.297Z,11.50
2023-03-20T10:17:05.352Z,11.70
2023-03-20T10:19:36.349Z,11.80
2023-03-20T10:22:07.390Z,12.00
2023-03-20T10:24:43.415Z,11.90
2023-03-20T10:27:35.229Z,11.90
2023-03-20T10:30:08.950Z,11.90
2023-03-20T10:32:42.914Z,12.00
2023-03-20T10:35:16.552Z,12.00
2023-03-20T10:37:52.003Z,11.90
2023-03-20T10:40:26.063Z,12.00
2023-03-20T10:42:55.245Z,12.10
2023-03-20T10:45:37.448Z,12.10
2023-03-20T10:48:09.033Z,12.10
2023-03-20T10:50:42.118Z,12.00
2023-03-20T10:53:15.582Z,12.00
2023-03-20T10:55:44.637Z,12.20
2023-03-20T10:58:25.726Z,12.20
2023-03-20T11:00:55.937Z,12.10
2023-03-20T11:03:25.784Z,12.00
2023-03-20T11:06:09.232Z,12.10
2023-03-20T11:08:42.562Z,12.20
2023-03-20T11:11:11.268Z,12.30
2023-03-20T11:13:43.795Z,12.30
2023-03-20T11:16:22.015Z,12.30
2023-03-20T11:18:50.673Z,12.40
2023-03-20T11:21:29.266Z,12.50
2023-03-20T11:24:03.955Z,12.50
2023-03-20T11:26:41.443Z,12.60
2023-03-20T11:29:16.772Z,12.50
2023-03-20T11:31:44.679Z,12.60
2023-03-20T11:34:12.509Z,12.70
2023-03-20T11:36:42.304Z,12.60
2023-03-20T11:39:17.708Z,12.40
2023-03-20T11:41:45.571Z,12.50
2023-03-20T11:44:23.837Z,12.50
2023-03-20T11:47:04.717Z,12.60
2023-03-20T11:49:33.513Z,12.60
2023-03-20T11:52:16.497Z,12.50
2023-03-20T11:54:49.528Z,12.70
2023-03-20T11:57:36.035Z,12.80
2023-03-20T12:00:12.944Z,13.00
2023-03-20T12:02:44.364Z,13.20
2023-03-20T12:05:31.221Z,13.30
2023-03-20T12:08:02.085Z,13.30
2023-03-20T12:10:32.637Z,13.30
2023-03-20T12:13:06.487Z,13.20
2023-03-20T12:15:39.929Z,13.20
2023-03-20T12:18:10.686Z,13.20
2023-03-20T12:20:57.152Z,13.30
2023-03-20T12:23:34.075Z,13.30
2023-03-20T12:26:12.171Z,13.40
2023-03-20T12:28:53.463Z,13.60
2023-03-20T12:31:43.233Z,13.80
2023-03-20T12:34:14.226Z,13.90
2023-03-20T12:36:46.508Z,13.80
2023-03-20T12:39:14.298Z,13.90
2023-03-20T12:41:50.869Z,13.90
2023-03-20T12:44:29.318Z,13.70
2023-03-20T12:47:19.606Z,13.50
2023-03-20T12:50:08.399Z,13.50
2023-03-20T12:52:36.243Z,13.50
2023-03-20T12:55:10.111Z,13.60
2023-03-20T12:57:40.187Z,13.60
2023-03-20T13:00:13.965Z,13.50
2023-03-20T13:02:52.979Z,13.60
2023-03-20T13:05:27.610Z,13.50
2023-03-20T13:08:14.069Z,13.40
2023-03-20T13:10:53.686Z,13.30
2023-03-20T13:13:29.320Z,13.30
2023-03-20T13:16:11.410Z,13.40
2023-03-20T13:18:48.505Z,13.40
2023-03-20T13:21:59.663Z,13.30
2023-03-20T13:24:40.226Z,13.40
2023-03-20T13:27:22.275Z,13.40
2023-03-20T13:30:10.673Z,13.50
2023-03-20T13:32:58.524Z,13.40
2023-03-20T13:36:03.620Z,13.20
2023-03-20T13:38:35.375Z,13.20
2023-03-20T13:41:06.243Z,13.20
2023-03-20T13:43:43.149Z,13.30
2023-03-20T13:46:21.097Z,13.20
2023-03-20T13:48:50.293Z,13.30
2023-03-20T13:51:27.868Z,13.50
2023-03-20T13:54:09.306Z,13.60
2023-03-20T13:56:52.517Z,13.60
2023-03-20T13:59:39.418Z,13.60
2023-03-20T14:02:22.921Z,13.50
2023-03-20T14:04:54.171Z,13.40
2023-03-20T14:07:36.372Z,13.50
2023-03-20T14:10:23.258Z,13.40
2023-03-20T14:12:51.993Z,13.30
2023-03-20T14:15:21.339Z,13.20
2023-03-20T14:17:50.846Z,13.20
2023-03-20T14:20:35.050Z,13.20
2023-03-20T14:23:03.767Z,13.20
2023-03-20T14:25:40.269Z,13.20
2023-03-20T14:28:11.365Z,13.20
2023-03-20T14:30:47.136Z,13.20
2023-03-20T14:33:15.549Z,13.20
2023-03-20T14:35:49.784Z,13.00
2023-03-20T14:38:31.436Z,13.00
2023-03-20T14:41:18.841Z,12.90
2023-03-20T14:44:00.053Z,12.90
2023-03-20T14:46:43.625Z,13.00
2023-03-20T14:49:21.120Z,13.00
2023-03-20T14:51:49.571Z,12.90
2023-03-20T14:54:22.930Z,12.80
2023-03-20T14:56:54.532Z,12.90
2023-03-20T14:59:24.239Z,13.00
2023-03-20T15:01:57.940Z,13.00
2023-03-20T15:04:28.961Z,13.00
2023-03-20T15:07:02.329Z,12.90
2023-03-20T15:09:32.559Z,13.00
2023-03-20T15:12:05.387Z,13.10
2023-03-20T15:14:57.176Z,13.00
2023-03-20T15:17:28.979Z,12.90
2023-03-20T15:20:20.365Z,12.70
2023-03-20T15:22:49.777Z,12.70
2023-03-20T15:25:18.916Z,12.60
2023-03-20T15:27:47.304Z,12.60
2023-03-20T15:30:16.571Z,12.60
2023-03-20T15:32:44.955Z,12.60
2023-03-20T15:35:14.095Z,12.50
2023-03-20T15:37:43.578Z,12.60
2023-03-20T15:40:12.931Z,12.70
2023-03-20T15:42:41.087Z,12.60
2023-03-20T15:45:15.296Z,12.60
2023-03-20T15:47:43.644Z,12.60
2023-03-20T15:50:15.044Z,12.40
2023-03-20T15:52:44.160Z,12.30
2023-03-20T15:58:56.832Z,12.30
2023-03-20T16:01:26.316Z,12.30
2023-03-20T16:03:58.920Z,12.30
2023-03-20T16:06:26.770Z,12.10
2023-03-20T16:08:59.611Z,12.00
2023-03-20T16:11:35.809Z,12.00
2023-03-20T16:14:03.853Z,12.10
2023-03-20T16:16:38.263Z,12.00
2023-03-20T16:19:07.369Z,11.90
2023-03-20T16:21:40.476Z,11.90
2023-03-20T16:24:12.750Z,12.00
2023-03-20T16:26:43.464Z,11.90
2023-03-20T16:29:13.028Z,11.80
2023-03-20T16:31:45.709Z,11.70
2023-03-20T16:34:19.456Z,11.80
2023-03-20T16:36:51.904Z,11.70
2023-03-20T16:39:21.671Z,11.70
2023-03-20T16:41:53.714Z,11.60
2023-03-20T16:44:26.199Z,11.70
2023-03-20T16:47:12.473Z,11.60
2023-03-20T16:49:49.811Z,11.60
2023-03-20T16:52:21.310Z,11.60
2023-03-20T16:54:49.715Z,11.50
2023-03-20T16:57:20.742Z,11.50
2023-03-20T16:59:49.375Z,11.40
2023-03-20T17:02:29.575Z,11.50
2023-03-20T17:04:58.707Z,11.40
2023-03-20T17:07:29.168Z,11.40
2023-03-20T17:10:15.495Z,11.30
2023-03-20T17:12:44.533Z,11.30
2023-03-20T17:15:16.119Z,11.30
2023-03-20T17:17:45.871Z,11.20
2023-03-20T17:20:26.308Z,11.10
2023-03-20T17:22:54.483Z,11.10
2023-03-20T17:25:23.834Z,11.00
2023-03-20T17:27:54.331Z,10.90
2023-03-20T17:30:23.976Z,10.80
2023-03-20T17:32:51.968Z,10.80
2023-03-20T17:35:20.112Z,10.70
2023-03-20T17:37:48.035Z,10.70
2023-03-20T17:40:26.566Z,10.60
2023-03-20T17:42:55.028Z,10.60
2023-03-20T17:45:23.281Z,10.50
2023-03-20T17:47:52.695Z,10.60
2023-03-20T17:50:21.714Z,10.50
2023-03-20T17:52:49.630Z,10.50
2023-03-20T17:55:17.551Z,10.50
2023-03-20T17:57:45.415Z,10.40
2023-03-20T18:00:18.594Z,10.30
2023-03-20T18:02:46.542Z,10.30
2023-03-20T18:05:14.485Z,10.20
2023-03-20T18:07:42.466Z,10.20
2023-03-20T18:10:17.668Z,10.20
2023-03-20T18:12:45.653Z,10.20
2023-03-20T18:15:13.399Z,10.10
2023-03-20T18:17:41.321Z,10.00
2023-03-20T18:20:16.917Z,9.90
2023-03-20T18:22:44.750Z,9.90
2023-03-20T18:25:12.582Z,10.00
2023-03-20T18:27:40.387Z,9.90
2023-03-20T18:30:15.120Z,9.80
2023-03-20T18:32:45.787Z,9.60
2023-03-20T18:35:14.066Z,9.50
2023-03-20T18:37:42.382Z,9.40
2023-03-20T18:40:16.473Z,9.30
2023-03-20T18:42:44.296Z,9.30
2023-03-20T18:45:12.367Z,9.30
2023-03-20T18:47:40.661Z,9.30
2023-03-20T18:50:19.600Z,9.30
2023-03-20T18:52:47.854Z,9.20
2023-03-20T18:55:15.673Z,9.20
2023-03-20T18:57:44.519Z,9.20
2023-03-20T19:00:17.399Z,9.20
2023-03-20T19:02:45.285Z,9.20
2023-03-20T19:05:13.899Z,9.20
2023-03-20T19:07:42.405Z,9.20
2023-03-20T19:10:25.953Z,9.20
2023-03-20T19:12:54.158Z,9.20
2023-03-20T19:15:22.545Z,9.20
2023-03-20T19:17:50.461Z,9.20
2023-03-20T19:20:38.561Z,9.30
2023-03-20T19:23:08.577Z,9.20
2023-03-20T19:25:37.272Z,9.20
2023-03-20T19:28:06.000Z,9.20
2023-03-20T19:30:33.903Z,9.20
2023-03-20T19:33:01.893Z,9.20
2023-03-20T19:35:54.544Z,9.10
2023-03-20T19:38:20.070Z,9.10
2023-03-20T19:40:48.878Z,9.10
2023-03-20T19:43:17.123Z,9.20
2023-03-20T19:45:45.480Z,9.20
2023-03-20T19:48:17.558Z,9.10
2023-03-20T19:50:47.659Z,9.20
2023-03-20T19:53:16.815Z,9.20
2023-03-20T19:55:45.175Z,9.30
2023-03-20T19:58:14.533Z,9.30
2023-03-20T20:00:59.939Z,9.30
2023-03-20T20:03:29.391Z,9.20
2023-03-20T20:05:57.961Z,9.20
2023-03-20T20:08:43.500Z,9.20
2023-03-20T20:11:16.099Z,9.30
2023-03-20T20:14:04.081Z,9.30
2023-03-20T20:16:31.920Z,9.40
2023-03-20T20:18:59.769Z,9.40
2023-03-20T20:24:17.305Z,9.40
2023-03-20T20:26:54.194Z,9.30
2023-03-20T20:29:23.329Z,9.30
2023-03-20T20:31:51.653Z,9.30
2023-03-20T20:39:56.684Z,9.40
2023-03-20T20:42:24.943Z,9.40
2023-03-20T20:47:25.897Z,9.40
2023-03-20T20:49:56.610Z,9.40
2023-03-20T20:52:24.814Z,9.40
2023-03-20T20:54:52.848Z,9.40
2023-03-20T20:57:23.879Z,9.30
2023-03-20T20:59:54.315Z,9.20
2023-03-20T21:02:22.357Z,9.20
2023-03-20T21:04:50.124Z,9.20
2023-03-20T21:07:18.043Z,9.20
2023-03-20T21:09:45.953Z,9.20
2023-03-20T21:12:32.402Z,9.30
2023-03-20T21:15:03.431Z,9.30
2023-03-20T21:17:31.624Z,9.30
2023-03-20T21:19:59.832Z,9.30
2023-03-20T21:22:27.843Z,9.30
2023-03-20T21:25:11.086Z,9.30
2023-03-20T21:27:41.818Z,9.20
2023-03-20T21:30:10.207Z,9.20
2023-03-20T21:32:38.500Z,9.20
2023-03-20T21:35:08.693Z,9.20
2023-03-20T21:40:25.279Z,9.20
2023-03-20T21:42:53.128Z,9.10
2023-03-20T21:51:50.235Z,9.10
2023-03-20T22:00:01.154Z,9.10
2023-03-20T22:02:24.686Z,9.10
2023-03-20T22:08:48.647Z,8.90
2023-03-20T22:11:27.618Z,8.90
2023-03-20T22:14:24.867Z,8.80
2023-03-20T22:17:13.402Z,8.70
2023-03-20T22:25:25.919Z,8.70
2023-03-20T22:28:09.158Z,8.70
2023-03-20T22:31:19.539Z,8.70
2023-03-20T22:47:13.714Z,8.40
2023-03-20T22:49:42.162Z,8.40
2023-03-20T22:52:26.530Z,8.30
2023-03-20T22:54:59.810Z,8.30
2023-03-20T22:57:38.798Z,8.40
2023-03-20T23:00:11.593Z,8.50
2023-03-20T23:02:39.803Z,8.50
2023-03-20T23:05:07.996Z,8.40
2023-03-20T23:07:36.103Z,8.40
2023-03-20T23:10:04.866Z,8.40
2023-03-20T23:12:33.032Z,8.30
2023-03-20T23:15:01.524Z,8.40
2023-03-20T23:17:29.594Z,8.30
2023-03-20T23:20:10.393Z,8.40
2023-03-20T23:22:39.578Z,8.30
2023-03-20T23:25:30.738Z,8.40
2023-03-20T23:28:02.862Z,8.40
2023-03-20T23:30:41.943Z,8.40
2023-03-20T23:33:12.964Z,8.50
2023-03-20T23:35:40.806Z,8.50
2023-03-20T23:38:08.687Z,8.40
2023-03-20T23:40:37.075Z,8.50
2023-03-20T23:43:05.051Z,8.50
2023-03-20T23:45:33.234Z,8.50
2023-03-20T23:48:01.154Z,8.50
2023-03-20T23:50:42.606Z,8.60
2023-03-20T23:53:20.767Z,8.50
2023-03-20T23:55:50.079Z,8.50
2023-03-20T23:58:17.997Z,8.40
